• Join FlightAware (Why Join?)
  • Login
  • US Flag 
Trick or treat! (Boo!!) 
04:39AM EDT


 

Airport Tracker/Info


-or-


 

Live Flight TrackerFlight Track Log ✈ DAL1578 ✈ 18-Sep-2013 ✈ KDEN - KATL

Flight Track Log - Related Links

Times and Time Zones

All times are in EDT time to prevent confusion due to time zone crossing. See the DAL1578 flight status page for this flight to view local times or setup timezone preferences in your user account.

Time Position Orientation Groundspeed Altitude Reporting Facility
EDT Latitude Longitude Course Direction KTS MPH feet Rate Location/Type
12:50PM 39.7833 -104.6500 98° East 233 268 7,700  Level Denver TRACON
12:51PM 39.7667 -104.5333 100° East 295 339 9,800 1,380 Climbing Denver TRACON
12:52PM 39.7667 -104.4167 90° East 364 419 10,500 2,040 Climbing Denver TRACON
12:53PM 39.7667 -104.2833 90° East 365 420 13,900 2,460 Climbing Denver TRACON
12:54PM 39.7500 -104.1500 99° East 385 443 15,500 1,800 Climbing Denver TRACON
12:55PM 39.6641 -103.7130 98° East  Level Estimated
12:56PM 39.7447 -103.8042 91° East 432 497 19,900  Level Denver Center
12:57PM 39.7364 -103.6603 94° East 431 496 21,600 1,680 Climbing Denver Center
12:58PM 39.7197 -103.4600 96° East 464 534 23,400 1,620 Climbing Denver Center
12:59PM 39.7053 -103.2864 96° East 480 552 25,000 1,620 Climbing Denver Center
01:00PM 39.6914 -103.1103 96° East 489 563 26,800 1,500 Climbing Denver Center
01:01PM 39.6761 -102.9308 96° East 499 574 28,100 1,200 Climbing Denver Center
01:02PM 39.6614 -102.7486 96° East 508 585 29,400 1,740 Climbing Denver Center
01:03PM 39.6428 -102.5372 96° East 508 585 31,700 1,740 Climbing Denver Center
01:04PM 39.6269 -102.3664 97° East 501 577 33,000 1,200 Climbing Denver Center
01:05PM 39.6086 -102.1661 97° East 503 579 34,300 960 Climbing Denver Center
01:06PM 39.5922 -101.9944 97° East 502 578 35,000 300 Climbing Denver Center
01:07PM 39.5772 -101.7981 96° East 494 568 35,000  Level Denver Center
01:08PM 39.5633 -101.6261 96° East 499 574 35,000  Level Denver Center
01:09PM 39.5456 -101.4267 97° East 501 577 35,000  Level Denver Center
01:10PM 39.5231 -101.2558 100° East 503 579 35,000  Level Denver Center
01:11PM 39.4981 -101.0872 101° East 502 578 35,000  Level Denver Center
01:12PM 39.4686 -100.8894 101° East 503 579 35,000  Level Denver Center
01:13PM 39.4417 -100.7189 102° East 505 581 35,000  Level Denver Center
01:14PM 39.4119 -100.5236 101° East 500 575 35,000  Level Denver Center
01:16PM 39.3853 -100.3533 101° East 503 579 35,000  Level Denver Center
01:17PM 39.3556 -100.1567 101° East 502 578 35,000  Level Denver Center
01:18PM 39.3283 -99.9867 102° East 505 581 35,000  Level Denver Center
01:19PM 39.2972 -99.7906 102° East 502 578 35,000  Level Denver Center
01:20PM 39.2703 -99.6222 102° East 502 578 35,000  Level Denver Center
01:21PM 39.2378 -99.4256 102° East 503 579 35,000  Level Denver Center
01:22PM 39.2103 -99.2575 102° East 502 578 35,000  Level Denver Center
01:23PM 39.1767 -99.0572 102° East 500 575 35,000  Level Denver Center
01:25PM 39.1119 -98.6686 102° East 497 572 35,000  Level Denver Center
01:26PM 39.0811 -98.4972 103° East 494 568 35,000  Level Denver Center
01:28PM 39.0386 -98.2553 103° East 491 565 35,000  Level Kansas City Center
01:29PM 39.0086 -98.0822 103° East 493 567 35,000  Level Kansas City Center
01:30PM 38.9775 -97.9106 103° East 493 567 35,000  Level Kansas City Center
01:31PM 38.9417 -97.7131 103° East 490 564 35,000  Level Kansas City Center
01:32PM 38.9117 -97.5494 103° East 490 564 35,000  Level Kansas City Center
01:33PM 38.8736 -97.3631 105° East 494 568 35,000  Level Kansas City Center
01:34PM 38.8411 -97.1936 104° East 490 564 35,000  Level Kansas City Center
01:35PM 38.8081 -97.0247 104° East 488 562 35,000  Level Kansas City Center
01:36PM 38.7736 -96.8564 105° East 488 562 35,000  Level Kansas City Center
01:37PM 38.7417 -96.6875 104° East 487 560 35,000  Level Kansas City Center
01:38PM 38.7008 -96.4983 105° East 493 567 35,000  Level Kansas City Center
01:39PM 38.6736 -96.3061 100° East 493 567 35,000  Level Kansas City Center
01:40PM 38.6594 -96.1367 96° East 500 575 35,000  Level Kansas City Center
01:41PM 38.6472 -95.9383 94° East 501 577 35,000 60 Level Kansas City Center
01:42PM 38.6364 -95.7672 95° East 505 581 35,200 720 Climbing Kansas City Center
01:43PM 38.6231 -95.5697 95° East 502 578 36,600 840 Climbing Kansas City Center
01:44PM 38.6117 -95.4022 95° East 498 573 37,000 180 Climbing Kansas City Center
01:45PM 38.5986 -95.2069 95° East 496 571 37,000  Level Kansas City Center
01:46PM 38.5881 -95.0381 95° East 500 575 37,000  Level Kansas City Center
01:47PM 38.5769 -94.8392 94° East 504 580 37,000  Level Kansas City Center
01:48PM 38.5661 -94.6681 95° East 506 582 37,000  Level Kansas City Center
01:49PM 38.5517 -94.4692 95° East 506 582 37,000  Level Kansas City Center
01:50PM 38.5392 -94.2969 95° East 508 585 37,000  Level Kansas City Center
01:51PM 38.5244 -94.1258 96° East 509 586 37,000  Level Kansas City Center
01:52PM 38.5056 -93.9267 97° East 507 583 37,000  Level Kansas City Center
01:53PM 38.4883 -93.7564 97° East 507 583 37,000  Level Kansas City Center
01:54PM 38.4706 -93.5419 96° East 510 587 37,000  Level Kansas City Center
01:55PM 38.4542 -93.3608 97° East 512 589 37,000  Level Kansas City Center
01:57PM 38.4389 -93.1792 96° East 513 590 37,000  Level Kansas City Center
01:58PM 38.4236 -92.9978 96° East 512 589 37,000  Level Kansas City Center
01:59PM 38.4078 -92.8169 96° East 512 589 37,000  Level Kansas City Center
02:00PM 38.3914 -92.6347 96° East 513 590 37,000  Level Kansas City Center
02:01PM 38.3678 -92.4533 99° East 514 592 37,000  Level Kansas City Center
02:02PM 38.3422 -92.2747 100° East 510 587 37,000  Level Kansas City Center
02:03PM 38.3083 -92.0975 104° East 509 586 37,000  Level Kansas City Center
02:04PM 38.2656 -91.8856 104° East 510 587 37,000  Level Kansas City Center
02:05PM 38.2214 -91.7156 108° East 503 579 37,000  Level Kansas City Center
02:06PM 38.1647 -91.5503 114° Southeast 506 582 37,000  Level Kansas City Center
02:07PM 38.1056 -91.3872 115° Southeast 506 582 37,000  Level Kansas City Center
02:08PM 38.0436 -91.2253 116° Southeast 506 582 37,000  Level Kansas City Center
02:09PM 37.9825 -91.0600 115° Southeast 504 580 37,000  Level Kansas City Center
02:10PM 37.9228 -90.8989 115° Southeast 506 582 37,000  Level Kansas City Center
02:11PM 37.8628 -90.7372 115° Southeast 509 586 37,000  Level Kansas City Center
02:12PM 37.7892 -90.5433 116° Southeast 512 589 37,000  Level Kansas City Center
02:13PM 37.7286 -90.3806 115° Southeast 514 592 37,000  Level Kansas City Center
02:14PM 37.6683 -90.2242 116° Southeast 508 585 37,000  Level Kansas City Center
02:15PM 37.6044 -90.0656 117° Southeast 510 587 37,000  Level Kansas City Center
02:16PM 37.5353 -89.8983 118° Southeast 513 590 37,000  Level Kansas City Center
02:17PM 37.4703 -89.7381 117° Southeast 514 592 37,000  Level Kansas City Center
02:18PM 37.4039 -89.5778 118° Southeast 514 592 37,000  Level Kansas City Center
02:19PM 37.3233 -89.3853 118° Southeast 516 594 37,000  Level Kansas City Center
02:20PM 37.2878 -89.2906 115° Southeast 508 585 37,000  Level Memphis Center
02:21PM 37.2839 -89.1133 92° East 494 568 37,000  Level Memphis Center
02:22PM 37.2989 -88.9411 84° East 488 562 37,000  Level Memphis Center
02:23PM 37.3133 -88.7661 84° East 495 570 37,000  Level Memphis Center
02:24PM 37.3256 -88.5911 85° East 500 575 37,000  Level Memphis Center
02:25PM 37.3375 -88.4239 85° East 495 570 37,000  Level Memphis Center
02:26PM 37.2994 -88.2581 106° East 495 570 37,000  Level Memphis Center
02:27PM 37.2056 -88.1197 130° Southeast 477 549 37,000  Level Memphis Center
02:28PM 37.0986 -87.9772 133° Southeast 496 571 37,000  Level Memphis Center
02:29PM 37.0022 -87.8425 132° Southeast 513 590 37,000  Level Memphis Center
02:30PM 36.9186 -87.7308 133° Southeast 513 590 37,000  Level Memphis Center
02:31PM 36.8219 -87.5967 132° Southeast 513 590 37,000 -420 Level Memphis Center
02:32PM 36.7786 -87.4375 109° East 490 564 36,200 -1,020 Descending Memphis Center
02:33PM 36.7517 -87.2728 101° East 479 551 35,000 -600 Descending Memphis Center
02:34PM 36.7206 -87.1136 104° East 472 543 35,000  Level Memphis Center
02:35PM 36.6867 -86.9364 103° East 472 543 35,000  Level Memphis Center
02:36PM 36.6181 -86.7919 121° Southeast 466 536 35,000  Level Memphis Center
02:37PM 36.5472 -86.6503 122° Southeast 480 552 35,000  Level Memphis Center
02:38PM 36.4761 -86.5067 122° Southeast 485 558 35,000  Level Memphis Center
02:39PM 36.3717 -86.4342 151° Southeast 471 542 35,000 -360 Level Memphis Center
02:40PM 36.2378 -86.4225 176° South 458 527 34,300 -540 Descending Memphis Center
02:41PM 36.1083 -86.4108 176° South 470 541 34,000 -600 Descending Memphis Center
02:42PM 35.9800 -86.3786 169° South 476 548 33,100 -1,020 Descending Memphis Center
02:43PM 35.8589 -86.3078 155° Southeast 470 541 32,000 -660 Descending Memphis Center
02:45PM 35.5897 -86.1431 154° Southeast 479 551 31,000 -360 Descending Atlanta Center
02:46PM 35.4700 -86.0711 154° Southeast 472 543 31,000 -240 Level Atlanta Center
02:47PM 35.3336 -85.9914 155° Southeast 484 557 30,600 -480 Descending Atlanta Center
02:48PM 35.2256 -85.9658 169° South 447 514 30,100 -660 Descending Atlanta Center
02:49PM 35.1167 -85.9864 189° South 421 484 29,300 -1,020 Descending Atlanta Center
02:50PM 35.0058 -85.9964 184° South 414 476 28,100 -1,200 Descending Atlanta Center
02:51PM 34.9086 -85.9358 153° Southeast 384 442 27,000 -1,020 Descending Atlanta Center
02:52PM 34.8267 -85.8456 138° Southeast 384 442 26,100 -1,080 Descending Atlanta Center
02:53PM 34.7464 -85.7603 139° Southeast 384 442 24,900 -1,200 Descending Atlanta Center
02:54PM 34.6664 -85.6703 137° Southeast 390 449 23,800 -960 Descending Atlanta Center
02:55PM 34.5839 -85.5828 139° Southeast 390 449 23,000 -1,140 Descending Atlanta Center
02:56PM 34.5056 -85.4983 138° Southeast 390 449 21,600 -1,680 Descending Atlanta Center
02:57PM 34.4294 -85.4139 138° Southeast 384 442 19,700 -1,800 Descending Atlanta Center
02:58PM 34.3553 -85.3272 136° Southeast 379 436 18,100 -1,500 Descending Atlanta Center
02:59PM 34.2831 -85.2481 138° Southeast 360 414 16,800 -1,440 Descending Atlanta Center
03:00PM 34.2128 -85.1717 138° Southeast 347 399 15,300 -1,500 Descending Atlanta Center
03:01PM 34.1444 -85.0931 136° Southeast 341 392 13,800 -1,200 Descending Atlanta Center
03:02PM 34.0764 -85.0094 134° Southeast 329 379 13,000 -600 Descending Atlanta Center
03:03PM 34.0100 -84.9408 139° Southeast 315 362 12,600 -1,020 Descending Atlanta Center
03:04PM 33.9247 -84.9300 174° South 301 346 11,000 -1,500 Descending Atlanta Center
03:05PM 33.8411 -84.9167 172° South 301 346 9,600 -1,020 Descending Atlanta Center
03:06PM 33.7578 -84.9033 172° South 306 352 9,000 -780 Descending Atlanta Center
03:07PM 33.6869 -84.8853 168° South 283 326 8,100 -1,020 Descending Atlanta Center
03:08PM 33.6308 -84.8497 152° Southeast 250 288 7,000 -1,020 Descending Atlanta Center
03:10PM 33.6333 -84.7500 88° East 200 230 5,700 -960 Descending Atlanta TRACON
03:11PM 33.6333 -84.6833 90° East 202 232 4,700 -1,080 Descending Atlanta TRACON
03:12PM 33.6333 -84.6167 90° East 190 219 3,600 -1,080 Descending Atlanta TRACON
03:13PM 33.6333 -84.5500 90° East 183 211 2,600 -900 Descending Atlanta TRACON
03:14PM 33.6333 -84.5000 90° East 141 162 1,800 -720 Descending Atlanta TRACON
03:15PM 33.6333 -84.4500 90° East 131 151 1,200 -600 Descending Atlanta TRACON